sensor_id;sensor_type;location;lat;lon;timestamp;temperature;humidity
17170;DHT22;8700;48.222;16.342;2023-04-02T00:00:17;11.10;99.90
17170;DHT22;8700;48.222;16.342;2023-04-02T00:04:10;11.10;99.90
17170;DHT22;8700;48.222;16.342;2023-04-02T00:07:33;11.20;99.90
17170;DHT22;8700;48.222;16.342;2023-04-02T00:11:00;11.20;99.90
17170;DHT22;8700;48.222;16.342;2023-04-02T00:14:26;11.50;99.90
17170;DHT22;8700;48.222;16.342;2023-04-02T00:17:47;11.60;99.90
17170;DHT22;8700;48.222;16.342;2023-04-02T00:21:15;11.80;99.90
17170;DHT22;8700;48.222;16.342;2023-04-02T00:24:39;11.70;99.90
17170;DHT22;8700;48.222;16.342;2023-04-02T00:28:02;11.50;99.90
17170;DHT22;8700;48.222;16.342;2023-04-02T00:31:24;11.70;99.90
17170;DHT22;8700;48.222;16.342;2023-04-02T00:34:46;11.90;99.90
17170;DHT22;8700;48.222;16.342;2023-04-02T00:38:14;11.70;99.90
17170;DHT22;8700;48.222;16.342;2023-04-02T00:41:37;11.50;99.90
17170;DHT22;8700;48.222;16.342;2023-04-02T00:45:09;11.50;99.90
17170;DHT22;8700;48.222;16.342;2023-04-02T00:48:42;11.60;99.90
17170;DHT22;8700;48.222;16.342;2023-04-02T00:52:06;11.50;99.90
17170;DHT22;8700;48.222;16.342;2023-04-02T00:55:34;11.30;99.90
17170;DHT22;8700;48.222;16.342;2023-04-02T00:58:58;11.40;99.90
17170;DHT22;8700;48.222;16.342;2023-04-02T01:02:23;11.40;99.90
17170;DHT22;8700;48.222;16.342;2023-04-02T01:05:47;11.10;99.90
17170;DHT22;8700;48.222;16.342;2023-04-02T01:09:17;11.00;99.90
17170;DHT22;8700;48.222;16.342;2023-04-02T01:12:49;10.90;99.90
17170;DHT22;8700;48.222;16.342;2023-04-02T01:16:19;11.10;99.90
17170;DHT22;8700;48.222;16.342;2023-04-02T01:19:58;11.00;99.90
17170;DHT22;8700;48.222;16.342;2023-04-02T01:23:30;11.10;99.90
17170;DHT22;8700;48.222;16.342;2023-04-02T01:26:56;11.10;99.90
17170;DHT22;8700;48.222;16.342;2023-04-02T01:30:19;10.90;99.90
17170;DHT22;8700;48.222;16.342;2023-04-02T01:33:41;10.80;99.90
17170;DHT22;8700;48.222;16.342;2023-04-02T01:37:17;10.80;99.90
17170;DHT22;8700;48.222;16.342;2023-04-02T01:40:47;10.90;99.90
17170;DHT22;8700;48.222;16.342;2023-04-02T01:44:13;10.80;99.90
17170;DHT22;8700;48.222;16.342;2023-04-02T01:47:38;10.60;99.90
17170;DHT22;8700;48.222;16.342;2023-04-02T01:51:05;10.60;99.90
17170;DHT22;8700;48.222;16.342;2023-04-02T01:54:27;10.70;99.90
17170;DHT22;8700;48.222;16.342;2023-04-02T01:57:50;11.00;99.90
17170;DHT22;8700;48.222;16.342;2023-04-02T02:01:14;11.00;99.90
17170;DHT22;8700;48.222;16.342;2023-04-02T02:04:38;10.90;99.90
17170;DHT22;8700;48.222;16.342;2023-04-02T02:08:00;11.10;99.90
17170;DHT22;8700;48.222;16.342;2023-04-02T02:11:25;10.90;99.90
17170;DHT22;8700;48.222;16.342;2023-04-02T02:14:48;10.80;99.90
17170;DHT22;8700;48.222;16.342;2023-04-02T02:18:11;10.90;99.90
17170;DHT22;8700;48.222;16.342;2023-04-02T02:21:38;11.00;99.90
17170;DHT22;8700;48.222;16.342;2023-04-02T02:25:03;11.00;99.90
17170;DHT22;8700;48.222;16.342;2023-04-02T02:28:28;11.00;99.90
17170;DHT22;8700;48.222;16.342;2023-04-02T02:31:51;11.10;99.90
17170;DHT22;8700;48.222;16.342;2023-04-02T02:35:17;11.20;99.90
17170;DHT22;8700;48.222;16.342;2023-04-02T02:38:46;10.80;99.90
17170;DHT22;8700;48.222;16.342;2023-04-02T02:42:15;10.80;99.90
17170;DHT22;8700;48.222;16.342;2023-04-02T02:45:40;11.00;99.90
17170;DHT22;8700;48.222;16.342;2023-04-02T02:49:04;11.20;99.90
17170;DHT22;8700;48.222;16.342;2023-04-02T02:52:27;11.00;99.90
17170;DHT22;8700;48.222;16.342;2023-04-02T02:55:54;11.10;99.90
17170;DHT22;8700;48.222;16.342;2023-04-02T02:59:19;11.20;99.90
17170;DHT22;8700;48.222;16.342;2023-04-02T03:02:41;11.10;99.90
17170;DHT22;8700;48.222;16.342;2023-04-02T03:06:06;11.10;99.90
17170;DHT22;8700;48.222;16.342;2023-04-02T03:09:35;11.00;99.90
17170;DHT22;8700;48.222;16.342;2023-04-02T03:13:05;11.10;99.90
17170;DHT22;8700;48.222;16.342;2023-04-02T03:16:34;11.00;99.90
17170;DHT22;8700;48.222;16.342;2023-04-02T03:19:59;11.10;99.90
17170;DHT22;8700;48.222;16.342;2023-04-02T03:23:27;11.10;99.90
17170;DHT22;8700;48.222;16.342;2023-04-02T03:26:57;11.20;99.90
17170;DHT22;8700;48.222;16.342;2023-04-02T03:30:39;11.20;99.90
17170;DHT22;8700;48.222;16.342;2023-04-02T03:34:07;11.10;99.90
17170;DHT22;8700;48.222;16.342;2023-04-02T03:37:35;11.20;99.90
17170;DHT22;8700;48.222;16.342;2023-04-02T03:41:03;10.80;99.90
17170;DHT22;8700;48.222;16.342;2023-04-02T03:44:30;10.90;99.90
17170;DHT22;8700;48.222;16.342;2023-04-02T03:47:58;10.80;99.90
17170;DHT22;8700;48.222;16.342;2023-04-02T03:51:25;10.90;99.90
17170;DHT22;8700;48.222;16.342;2023-04-02T03:54:47;10.90;99.90
17170;DHT22;8700;48.222;16.342;2023-04-02T03:58:14;10.80;99.90
17170;DHT22;8700;48.222;16.342;2023-04-02T04:01:42;10.60;99.90
17170;DHT22;8700;48.222;16.342;2023-04-02T04:05:26;10.60;99.90
17170;DHT22;8700;48.222;16.342;2023-04-02T04:08:52;10.80;99.90
17170;DHT22;8700;48.222;16.342;2023-04-02T04:12:23;10.90;99.90
17170;DHT22;8700;48.222;16.342;2023-04-02T04:15:51;10.80;99.90
17170;DHT22;8700;48.222;16.342;2023-04-02T04:19:17;10.80;99.90
17170;DHT22;8700;48.222;16.342;2023-04-02T04:22:42;10.70;99.90
17170;DHT22;8700;48.222;16.342;2023-04-02T04:26:07;10.70;99.90
17170;DHT22;8700;48.222;16.342;2023-04-02T04:29:45;10.80;99.90
17170;DHT22;8700;48.222;16.342;2023-04-02T04:33:12;10.60;99.90
17170;DHT22;8700;48.222;16.342;2023-04-02T04:36:40;10.80;99.90
17170;DHT22;8700;48.222;16.342;2023-04-02T04:40:17;10.80;99.90
17170;DHT22;8700;48.222;16.342;2023-04-02T04:43:44;10.80;99.90
17170;DHT22;8700;48.222;16.342;2023-04-02T04:47:09;10.70;99.90
17170;DHT22;8700;48.222;16.342;2023-04-02T04:50:36;10.80;99.90
17170;DHT22;8700;48.222;16.342;2023-04-02T04:53:59;10.60;99.90
17170;DHT22;8700;48.222;16.342;2023-04-02T04:57:28;10.60;99.90
17170;DHT22;8700;48.222;16.342;2023-04-02T05:00:55;10.60;99.90
17170;DHT22;8700;48.222;16.342;2023-04-02T05:04:22;10.50;99.90
17170;DHT22;8700;48.222;16.342;2023-04-02T05:07:49;10.40;99.90
17170;DHT22;8700;48.222;16.342;2023-04-02T05:11:14;10.60;99.90
17170;DHT22;8700;48.222;16.342;2023-04-02T05:14:44;10.80;99.90
17170;DHT22;8700;48.222;16.342;2023-04-02T05:18:18;10.90;99.90
17170;DHT22;8700;48.222;16.342;2023-04-02T05:21:46;11.00;99.90
17170;DHT22;8700;48.222;16.342;2023-04-02T05:25:17;11.00;99.90
17170;DHT22;8700;48.222;16.342;2023-04-02T05:28:42;11.10;99.90
17170;DHT22;8700;48.222;16.342;2023-04-02T05:32:11;11.20;99.90
17170;DHT22;8700;48.222;16.342;2023-04-02T05:35:35;11.10;99.90
17170;DHT22;8700;48.222;16.342;2023-04-02T05:38:58;10.90;99.90
17170;DHT22;8700;48.222;16.342;2023-04-02T05:42:22;11.00;99.90
17170;DHT22;8700;48.222;16.342;2023-04-02T05:45:44;11.10;99.90
17170;DHT22;8700;48.222;16.342;2023-04-02T05:49:17;11.00;99.90
17170;DHT22;8700;48.222;16.342;2023-04-02T05:52:44;11.30;99.90
17170;DHT22;8700;48.222;16.342;2023-04-02T05:56:11;11.40;99.90
17170;DHT22;8700;48.222;16.342;2023-04-02T05:59:37;11.40;99.90
17170;DHT22;8700;48.222;16.342;2023-04-02T06:03:03;11.40;99.90
17170;DHT22;8700;48.222;16.342;2023-04-02T06:06:44;11.00;99.90
17170;DHT22;8700;48.222;16.342;2023-04-02T06:10:10;10.90;99.90
17170;DHT22;8700;48.222;16.342;2023-04-02T06:13:32;10.90;99.90
17170;DHT22;8700;48.222;16.342;2023-04-02T06:16:53;11.10;99.90
17170;DHT22;8700;48.222;16.342;2023-04-02T06:20:16;11.00;99.90
17170;DHT22;8700;48.222;16.342;2023-04-02T06:23:40;11.20;99.90
17170;DHT22;8700;48.222;16.342;2023-04-02T06:27:05;11.40;99.90
17170;DHT22;8700;48.222;16.342;2023-04-02T06:30:30;11.50;99.90
17170;DHT22;8700;48.222;16.342;2023-04-02T06:33:52;11.40;99.90
17170;DHT22;8700;48.222;16.342;2023-04-02T06:37:20;11.40;99.90
17170;DHT22;8700;48.222;16.342;2023-04-02T06:40:48;11.40;99.90
17170;DHT22;8700;48.222;16.342;2023-04-02T06:44:13;11.70;99.90
17170;DHT22;8700;48.222;16.342;2023-04-02T06:47:39;12.00;99.90
17170;DHT22;8700;48.222;16.342;2023-04-02T06:51:05;12.00;99.90
17170;DHT22;8700;48.222;16.342;2023-04-02T06:54:27;12.10;99.90
17170;DHT22;8700;48.222;16.342;2023-04-02T06:57:49;12.30;99.90
17170;DHT22;8700;48.222;16.342;2023-04-02T07:01:16;12.20;99.90
17170;DHT22;8700;48.222;16.342;2023-04-02T07:04:37;12.50;99.90
17170;DHT22;8700;48.222;16.342;2023-04-02T07:07:59;12.70;99.90
17170;DHT22;8700;48.222;16.342;2023-04-02T07:11:21;13.00;99.90
17170;DHT22;8700;48.222;16.342;2023-04-02T07:14:43;12.70;99.90
17170;DHT22;8700;48.222;16.342;2023-04-02T07:18:07;12.80;99.90
17170;DHT22;8700;48.222;16.342;2023-04-02T07:21:29;12.70;99.90
17170;DHT22;8700;48.222;16.342;2023-04-02T07:24:51;12.40;99.90
17170;DHT22;8700;48.222;16.342;2023-04-02T07:28:12;12.60;99.90
17170;DHT22;8700;48.222;16.342;2023-04-02T07:31:37;12.90;99.90
17170;DHT22;8700;48.222;16.342;2023-04-02T07:34:59;13.10;99.90
17170;DHT22;8700;48.222;16.342;2023-04-02T07:38:20;13.30;99.90
17170;DHT22;8700;48.222;16.342;2023-04-02T07:41:52;13.30;99.90
17170;DHT22;8700;48.222;16.342;2023-04-02T07:45:14;13.50;99.90
17170;DHT22;8700;48.222;16.342;2023-04-02T07:48:37;13.60;99.90
17170;DHT22;8700;48.222;16.342;2023-04-02T07:51:59;13.70;99.90
17170;DHT22;8700;48.222;16.342;2023-04-02T07:55:20;13.60;99.90
17170;DHT22;8700;48.222;16.342;2023-04-02T07:58:41;13.50;99.90
17170;DHT22;8700;48.222;16.342;2023-04-02T08:02:03;13.50;99.90
17170;DHT22;8700;48.222;16.342;2023-04-02T08:05:25;13.20;99.90
17170;DHT22;8700;48.222;16.342;2023-04-02T08:08:47;13.20;99.90
17170;DHT22;8700;48.222;16.342;2023-04-02T08:12:09;12.90;99.90
17170;DHT22;8700;48.222;16.342;2023-04-02T08:15:32;12.60;99.90
17170;DHT22;8700;48.222;16.342;2023-04-02T08:18:53;13.00;99.90
17170;DHT22;8700;48.222;16.342;2023-04-02T08:22:16;13.50;99.90
17170;DHT22;8700;48.222;16.342;2023-04-02T08:25:37;14.00;99.90
17170;DHT22;8700;48.222;16.342;2023-04-02T08:28:58;14.30;99.90
17170;DHT22;8700;48.222;16.342;2023-04-02T08:32:19;14.00;99.90
17170;DHT22;8700;48.222;16.342;2023-04-02T08:35:42;14.20;99.90
17170;DHT22;8700;48.222;16.342;2023-04-02T08:39:05;14.00;99.90
17170;DHT22;8700;48.222;16.342;2023-04-02T08:42:33;13.60;99.90
17170;DHT22;8700;48.222;16.342;2023-04-02T08:46:03;13.70;99.90
17170;DHT22;8700;48.222;16.342;2023-04-02T08:49:31;13.80;99.90
17170;DHT22;8700;48.222;16.342;2023-04-02T08:52:55;13.80;99.90
17170;DHT22;8700;48.222;16.342;2023-04-02T08:56:22;14.00;99.90
17170;DHT22;8700;48.222;16.342;2023-04-02T08:59:45;14.30;99.90
17170;DHT22;8700;48.222;16.342;2023-04-02T09:03:09;14.50;99.90
17170;DHT22;8700;48.222;16.342;2023-04-02T09:06:33;14.40;99.90
17170;DHT22;8700;48.222;16.342;2023-04-02T09:09:56;14.60;99.90
17170;DHT22;8700;48.222;16.342;2023-04-02T09:13:22;14.60;99.90
17170;DHT22;8700;48.222;16.342;2023-04-02T09:16:46;14.80;99.90
17170;DHT22;8700;48.222;16.342;2023-04-02T09:20:15;14.90;99.90
17170;DHT22;8700;48.222;16.342;2023-04-02T09:23:37;14.70;99.90
17170;DHT22;8700;48.222;16.342;2023-04-02T09:26:58;14.60;99.90
17170;DHT22;8700;48.222;16.342;2023-04-02T09:30:29;14.70;99.90
17170;DHT22;8700;48.222;16.342;2023-04-02T09:33:54;14.60;99.90
17170;DHT22;8700;48.222;16.342;2023-04-02T09:37:17;14.30;99.90
17170;DHT22;8700;48.222;16.342;2023-04-02T09:40:42;14.50;99.90
17170;DHT22;8700;48.222;16.342;2023-04-02T09:44:21;14.70;99.90
17170;DHT22;8700;48.222;16.342;2023-04-02T09:47:44;14.90;99.90
17170;DHT22;8700;48.222;16.342;2023-04-02T09:51:12;15.10;99.90
17170;DHT22;8700;48.222;16.342;2023-04-02T09:54:34;15.20;99.90
17170;DHT22;8700;48.222;16.342;2023-04-02T09:58:11;15.90;99.90
17170;DHT22;8700;48.222;16.342;2023-04-02T10:01:38;16.80;99.90
17170;DHT22;8700;48.222;16.342;2023-04-02T10:05:04;17.80;99.90
17170;DHT22;8700;48.222;16.342;2023-04-02T10:08:25;17.50;99.90
17170;DHT22;8700;48.222;16.342;2023-04-02T10:11:48;17.30;99.90
17170;DHT22;8700;48.222;16.342;2023-04-02T10:15:14;16.50;99.90
17170;DHT22;8700;48.222;16.342;2023-04-02T10:18:42;16.00;99.90
17170;DHT22;8700;48.222;16.342;2023-04-02T10:22:12;15.90;99.90
17170;DHT22;8700;48.222;16.342;2023-04-02T10:25:39;15.50;99.90
17170;DHT22;8700;48.222;16.342;2023-04-02T10:29:11;15.90;99.90
17170;DHT22;8700;48.222;16.342;2023-04-02T10:32:39;15.60;99.90
17170;DHT22;8700;48.222;16.342;2023-04-02T10:36:08;15.80;99.90
17170;DHT22;8700;48.222;16.342;2023-04-02T10:39:35;15.60;99.90
17170;DHT22;8700;48.222;16.342;2023-04-02T10:43:23;15.50;99.90
17170;DHT22;8700;48.222;16.342;2023-04-02T10:46:56;15.60;99.90
17170;DHT22;8700;48.222;16.342;2023-04-02T10:50:30;15.30;99.90
17170;DHT22;8700;48.222;16.342;2023-04-02T10:53:57;15.30;99.90
17170;DHT22;8700;48.222;16.342;2023-04-02T10:57:28;15.50;99.90
17170;DHT22;8700;48.222;16.342;2023-04-02T11:00:54;15.60;99.90
17170;DHT22;8700;48.222;16.342;2023-04-02T11:04:17;15.40;99.90
17170;DHT22;8700;48.222;16.342;2023-04-02T11:07:52;15.10;99.90
17170;DHT22;8700;48.222;16.342;2023-04-02T11:11:15;14.70;99.90
17170;DHT22;8700;48.222;16.342;2023-04-02T11:14:39;14.80;99.90
17170;DHT22;8700;48.222;16.342;2023-04-02T11:18:00;14.80;99.90
17170;DHT22;8700;48.222;16.342;2023-04-02T11:21:38;14.00;99.90
17170;DHT22;8700;48.222;16.342;2023-04-02T11:25:01;14.30;99.90
17170;DHT22;8700;48.222;16.342;2023-04-02T11:28:27;14.50;99.90
17170;DHT22;8700;48.222;16.342;2023-04-02T11:32:23;14.70;99.90
17170;DHT22;8700;48.222;16.342;2023-04-02T11:35:46;14.50;99.90
17170;DHT22;8700;48.222;16.342;2023-04-02T11:39:09;14.50;99.90
17170;DHT22;8700;48.222;16.342;2023-04-02T11:42:36;13.60;99.90
17170;DHT22;8700;48.222;16.342;2023-04-02T11:46:00;12.50;99.90
17170;DHT22;8700;48.222;16.342;2023-04-02T11:49:59;11.90;99.90
17170;DHT22;8700;48.222;16.342;2023-04-02T11:53:25;11.80;99.90
17170;DHT22;8700;48.222;16.342;2023-04-02T11:56:51;11.60;99.90
17170;DHT22;8700;48.222;16.342;2023-04-02T12:00:26;11.30;99.90
17170;DHT22;8700;48.222;16.342;2023-04-02T12:04:06;11.30;99.90
17170;DHT22;8700;48.222;16.342;2023-04-02T12:11:36;11.00;99.90
17170;DHT22;8700;48.222;16.342;2023-04-02T12:14:59;10.60;99.90
17170;DHT22;8700;48.222;16.342;2023-04-02T12:18:22;10.50;99.90
17170;DHT22;8700;48.222;16.342;2023-04-02T12:21:45;10.30;99.90
17170;DHT22;8700;48.222;16.342;2023-04-02T12:25:22;10.20;99.90
17170;DHT22;8700;48.222;16.342;2023-04-02T12:28:45;10.20;99.90
17170;DHT22;8700;48.222;16.342;2023-04-02T12:32:18;10.20;99.90
17170;DHT22;8700;48.222;16.342;2023-04-02T12:35:41;10.30;99.90
17170;DHT22;8700;48.222;16.342;2023-04-02T12:39:03;10.30;99.90
17170;DHT22;8700;48.222;16.342;2023-04-02T12:42:27;10.40;99.90
17170;DHT22;8700;48.222;16.342;2023-04-02T12:45:51;10.50;99.90
17170;DHT22;8700;48.222;16.342;2023-04-02T12:49:21;10.60;99.90
17170;DHT22;8700;48.222;16.342;2023-04-02T12:52:45;10.60;99.90
17170;DHT22;8700;48.222;16.342;2023-04-02T12:56:17;10.60;99.90
17170;DHT22;8700;48.222;16.342;2023-04-02T12:59:42;10.60;99.90
17170;DHT22;8700;48.222;16.342;2023-04-02T13:03:18;10.60;99.90
17170;DHT22;8700;48.222;16.342;2023-04-02T13:06:47;10.60;99.90
17170;DHT22;8700;48.222;16.342;2023-04-02T13:10:23;10.70;99.90
17170;DHT22;8700;48.222;16.342;2023-04-02T13:13:46;10.70;99.90
17170;DHT22;8700;48.222;16.342;2023-04-02T13:17:40;10.70;99.90
17170;DHT22;8700;48.222;16.342;2023-04-02T13:21:04;10.80;99.90
17170;DHT22;8700;48.222;16.342;2023-04-02T13:24:27;11.00;99.90
17170;DHT22;8700;48.222;16.342;2023-04-02T13:27:53;10.90;99.90
17170;DHT22;8700;48.222;16.342;2023-04-02T13:31:15;10.90;99.90
17170;DHT22;8700;48.222;16.342;2023-04-02T13:34:38;10.80;99.90
17170;DHT22;8700;48.222;16.342;2023-04-02T13:38:01;11.10;99.90
17170;DHT22;8700;48.222;16.342;2023-04-02T13:41:26;11.30;99.90
17170;DHT22;8700;48.222;16.342;2023-04-02T13:44:49;11.40;99.90
17170;DHT22;8700;48.222;16.342;2023-04-02T13:48:14;11.60;99.90
17170;DHT22;8700;48.222;16.342;2023-04-02T13:51:40;11.90;99.90
17170;DHT22;8700;48.222;16.342;2023-04-02T13:55:07;12.20;99.90
17170;DHT22;8700;48.222;16.342;2023-04-02T13:58:29;12.60;99.90
17170;DHT22;8700;48.222;16.342;2023-04-02T14:01:53;12.80;99.90
17170;DHT22;8700;48.222;16.342;2023-04-02T14:05:30;12.80;99.90
17170;DHT22;8700;48.222;16.342;2023-04-02T14:09:00;12.60;99.90
17170;DHT22;8700;48.222;16.342;2023-04-02T14:12:31;12.20;99.90
17170;DHT22;8700;48.222;16.342;2023-04-02T14:16:07;11.90;99.90
17170;DHT22;8700;48.222;16.342;2023-04-02T14:19:45;11.70;99.90
17170;DHT22;8700;48.222;16.342;2023-04-02T14:23:30;11.70;99.90
17170;DHT22;8700;48.222;16.342;2023-04-02T14:27:17;11.60;99.90
17170;DHT22;8700;48.222;16.342;2023-04-02T14:30:46;11.70;99.90
17170;DHT22;8700;48.222;16.342;2023-04-02T14:34:15;11.60;99.90
17170;DHT22;8700;48.222;16.342;2023-04-02T14:37:43;11.50;99.90
17170;DHT22;8700;48.222;16.342;2023-04-02T14:41:09;11.40;99.90
17170;DHT22;8700;48.222;16.342;2023-04-02T14:44:38;11.40;99.90
17170;DHT22;8700;48.222;16.342;2023-04-02T14:48:07;11.30;99.90
17170;DHT22;8700;48.222;16.342;2023-04-02T14:51:37;11.40;99.90
17170;DHT22;8700;48.222;16.342;2023-04-02T14:55:01;11.40;99.90
17170;DHT22;8700;48.222;16.342;2023-04-02T14:58:26;11.50;99.90
17170;DHT22;8700;48.222;16.342;2023-04-02T15:01:55;11.50;99.90
17170;DHT22;8700;48.222;16.342;2023-04-02T15:05:21;11.60;99.90
17170;DHT22;8700;48.222;16.342;2023-04-02T15:08:48;11.90;99.90
17170;DHT22;8700;48.222;16.342;2023-04-02T15:12:18;11.90;99.90
17170;DHT22;8700;48.222;16.342;2023-04-02T15:15:42;11.90;99.90
17170;DHT22;8700;48.222;16.342;2023-04-02T15:19:11;12.00;99.90
17170;DHT22;8700;48.222;16.342;2023-04-02T15:22:35;12.20;99.90
17170;DHT22;8700;48.222;16.342;2023-04-02T15:26:09;12.10;99.90
17170;DHT22;8700;48.222;16.342;2023-04-02T15:29:41;11.90;99.90
17170;DHT22;8700;48.222;16.342;2023-04-02T15:33:39;11.60;99.90
17170;DHT22;8700;48.222;16.342;2023-04-02T15:37:10;11.40;99.90
17170;DHT22;8700;48.222;16.342;2023-04-02T15:40:45;11.30;99.90
17170;DHT22;8700;48.222;16.342;2023-04-02T15:44:12;11.20;99.90
17170;DHT22;8700;48.222;16.342;2023-04-02T15:47:38;11.10;99.90
17170;DHT22;8700;48.222;16.342;2023-04-02T15:51:12;11.00;99.90
17170;DHT22;8700;48.222;16.342;2023-04-02T15:55:01;10.90;99.90
17170;DHT22;8700;48.222;16.342;2023-04-02T15:58:34;11.00;99.90
17170;DHT22;8700;48.222;16.342;2023-04-02T16:02:14;11.00;99.90
17170;DHT22;8700;48.222;16.342;2023-04-02T16:05:43;11.00;99.90
17170;DHT22;8700;48.222;16.342;2023-04-02T16:09:17;10.90;99.90
17170;DHT22;8700;48.222;16.342;2023-04-02T16:12:43;10.90;99.90
17170;DHT22;8700;48.222;16.342;2023-04-02T16:16:07;10.80;99.90
17170;DHT22;8700;48.222;16.342;2023-04-02T16:19:32;10.80;99.90
17170;DHT22;8700;48.222;16.342;2023-04-02T16:22:58;10.80;99.90
17170;DHT22;8700;48.222;16.342;2023-04-02T16:26:42;10.70;99.90
17170;DHT22;8700;48.222;16.342;2023-04-02T16:30:43;10.70;99.90
17170;DHT22;8700;48.222;16.342;2023-04-02T16:34:10;10.70;99.90
17170;DHT22;8700;48.222;16.342;2023-04-02T16:37:38;10.60;99.90
17170;DHT22;8700;48.222;16.342;2023-04-02T16:41:10;10.60;99.90
17170;DHT22;8700;48.222;16.342;2023-04-02T16:44:43;10.40;99.90
17170;DHT22;8700;48.222;16.342;2023-04-02T16:48:16;10.30;99.90
17170;DHT22;8700;48.222;16.342;2023-04-02T16:51:46;10.00;99.90
17170;DHT22;8700;48.222;16.342;2023-04-02T16:55:22;10.10;99.90
17170;DHT22;8700;48.222;16.342;2023-04-02T16:58:52;10.00;99.90
17170;DHT22;8700;48.222;16.342;2023-04-02T17:02:23;10.00;99.90
17170;DHT22;8700;48.222;16.342;2023-04-02T17:05:55;9.90;99.90
17170;DHT22;8700;48.222;16.342;2023-04-02T17:09:23;9.70;99.90
17170;DHT22;8700;48.222;16.342;2023-04-02T17:12:46;9.60;99.90
17170;DHT22;8700;48.222;16.342;2023-04-02T17:16:14;9.40;99.90
17170;DHT22;8700;48.222;16.342;2023-04-02T17:19:38;9.40;99.90
17170;DHT22;8700;48.222;16.342;2023-04-02T17:23:03;9.30;99.90
17170;DHT22;8700;48.222;16.342;2023-04-02T17:26:26;9.30;99.90
17170;DHT22;8700;48.222;16.342;2023-04-02T17:29:51;9.10;99.90
17170;DHT22;8700;48.222;16.342;2023-04-02T17:33:14;9.10;99.90
17170;DHT22;8700;48.222;16.342;2023-04-02T17:36:42;9.00;99.90
17170;DHT22;8700;48.222;16.342;2023-04-02T17:40:20;9.00;99.90
17170;DHT22;8700;48.222;16.342;2023-04-02T17:43:46;8.90;99.90
17170;DHT22;8700;48.222;16.342;2023-04-02T17:47:13;8.80;99.90
17170;DHT22;8700;48.222;16.342;2023-04-02T17:50:44;8.80;99.90
17170;DHT22;8700;48.222;16.342;2023-04-02T17:54:24;8.70;99.90
17170;DHT22;8700;48.222;16.342;2023-04-02T17:58:01;8.60;99.90
17170;DHT22;8700;48.222;16.342;2023-04-02T18:01:29;8.60;99.90
17170;DHT22;8700;48.222;16.342;2023-04-02T18:04:58;8.40;99.90
17170;DHT22;8700;48.222;16.342;2023-04-02T18:08:28;8.40;99.90
17170;DHT22;8700;48.222;16.342;2023-04-02T18:12:00;8.50;99.90
17170;DHT22;8700;48.222;16.342;2023-04-02T18:15:43;8.50;99.90
17170;DHT22;8700;48.222;16.342;2023-04-02T18:19:14;8.50;99.90
17170;DHT22;8700;48.222;16.342;2023-04-02T18:22:41;8.40;99.90
17170;DHT22;8700;48.222;16.342;2023-04-02T18:26:08;8.50;99.90
17170;DHT22;8700;48.222;16.342;2023-04-02T18:29:38;8.40;99.90
17170;DHT22;8700;48.222;16.342;2023-04-02T18:33:20;8.40;99.90
17170;DHT22;8700;48.222;16.342;2023-04-02T18:36:52;8.50;99.90
17170;DHT22;8700;48.222;16.342;2023-04-02T18:40:29;8.50;99.90
17170;DHT22;8700;48.222;16.342;2023-04-02T18:44:03;8.40;99.90
17170;DHT22;8700;48.222;16.342;2023-04-02T18:47:32;8.40;99.90
17170;DHT22;8700;48.222;16.342;2023-04-02T18:50:58;8.10;99.90
17170;DHT22;8700;48.222;16.342;2023-04-02T18:54:24;8.20;99.90
17170;DHT22;8700;48.222;16.342;2023-04-02T18:57:48;8.00;99.90
17170;DHT22;8700;48.222;16.342;2023-04-02T19:01:14;7.90;99.90
17170;DHT22;8700;48.222;16.342;2023-04-02T19:04:38;8.00;99.90
17170;DHT22;8700;48.222;16.342;2023-04-02T19:08:09;8.00;99.90
17170;DHT22;8700;48.222;16.342;2023-04-02T19:11:31;8.10;99.90
17170;DHT22;8700;48.222;16.342;2023-04-02T19:14:52;8.10;99.90
17170;DHT22;8700;48.222;16.342;2023-04-02T19:18:19;8.00;99.90
17170;DHT22;8700;48.222;16.342;2023-04-02T19:22:01;7.80;99.90
17170;DHT22;8700;48.222;16.342;2023-04-02T19:25:43;7.80;99.90
17170;DHT22;8700;48.222;16.342;2023-04-02T19:29:16;8.00;99.90
17170;DHT22;8700;48.222;16.342;2023-04-02T19:32:46;7.90;99.90
17170;DHT22;8700;48.222;16.342;2023-04-02T19:36:26;7.90;99.90
17170;DHT22;8700;48.222;16.342;2023-04-02T19:40:08;8.00;99.90
17170;DHT22;8700;48.222;16.342;2023-04-02T19:43:33;7.90;99.90
17170;DHT22;8700;48.222;16.342;2023-04-02T19:46:54;7.90;99.90
17170;DHT22;8700;48.222;16.342;2023-04-02T19:50:16;7.90;99.90
17170;DHT22;8700;48.222;16.342;2023-04-02T19:53:37;7.80;99.90
17170;DHT22;8700;48.222;16.342;2023-04-02T19:56:58;7.80;99.90
17170;DHT22;8700;48.222;16.342;2023-04-02T20:00:21;7.80;99.90
17170;DHT22;8700;48.222;16.342;2023-04-02T20:03:43;7.90;99.90
17170;DHT22;8700;48.222;16.342;2023-04-02T20:07:04;7.70;99.90
17170;DHT22;8700;48.222;16.342;2023-04-02T20:10:28;7.80;99.90
17170;DHT22;8700;48.222;16.342;2023-04-02T20:13:50;7.80;99.90
17170;DHT22;8700;48.222;16.342;2023-04-02T20:17:13;7.70;99.90
17170;DHT22;8700;48.222;16.342;2023-04-02T20:20:34;7.70;99.90
17170;DHT22;8700;48.222;16.342;2023-04-02T20:23:56;7.70;99.90
17170;DHT22;8700;48.222;16.342;2023-04-02T20:27:17;7.60;99.90
17170;DHT22;8700;48.222;16.342;2023-04-02T20:30:39;7.80;99.90
17170;DHT22;8700;48.222;16.342;2023-04-02T20:34:02;7.70;99.90
17170;DHT22;8700;48.222;16.342;2023-04-02T20:37:25;7.70;99.90
17170;DHT22;8700;48.222;16.342;2023-04-02T20:40:46;7.70;99.90
17170;DHT22;8700;48.222;16.342;2023-04-02T20:44:12;7.70;99.90
17170;DHT22;8700;48.222;16.342;2023-04-02T20:47:33;7.70;99.90
17170;DHT22;8700;48.222;16.342;2023-04-02T20:50:56;7.70;99.90
17170;DHT22;8700;48.222;16.342;2023-04-02T20:54:18;7.70;99.90
17170;DHT22;8700;48.222;16.342;2023-04-02T20:57:39;7.50;99.90
17170;DHT22;8700;48.222;16.342;2023-04-02T21:01:08;7.40;99.90
17170;DHT22;8700;48.222;16.342;2023-04-02T21:04:30;7.40;99.90
17170;DHT22;8700;48.222;16.342;2023-04-02T21:07:53;7.30;99.90
17170;DHT22;8700;48.222;16.342;2023-04-02T21:11:15;7.30;99.90
17170;DHT22;8700;48.222;16.342;2023-04-02T21:14:37;7.50;99.90
17170;DHT22;8700;48.222;16.342;2023-04-02T21:17:58;7.40;99.90
17170;DHT22;8700;48.222;16.342;2023-04-02T21:21:21;7.40;99.90
17170;DHT22;8700;48.222;16.342;2023-04-02T21:24:43;7.50;99.90
17170;DHT22;8700;48.222;16.342;2023-04-02T21:28:05;7.30;99.90
17170;DHT22;8700;48.222;16.342;2023-04-02T21:31:28;7.40;99.90
17170;DHT22;8700;48.222;16.342;2023-04-02T21:34:50;7.40;99.90
17170;DHT22;8700;48.222;16.342;2023-04-02T21:38:11;7.40;99.90
17170;DHT22;8700;48.222;16.342;2023-04-02T21:41:35;7.40;99.90
17170;DHT22;8700;48.222;16.342;2023-04-02T21:44:56;7.40;99.90
17170;DHT22;8700;48.222;16.342;2023-04-02T21:48:18;7.30;99.90
17170;DHT22;8700;48.222;16.342;2023-04-02T21:51:40;7.30;99.90
17170;DHT22;8700;48.222;16.342;2023-04-02T21:55:02;7.40;99.90
17170;DHT22;8700;48.222;16.342;2023-04-02T21:58:24;7.40;99.90